createdAt,value
2017-11-27T00:01:54.641Z,3.85
2017-11-27T00:04:20.912Z,3.28
2017-11-27T00:06:47.187Z,4.90
2017-11-27T00:09:13.453Z,4.32
2017-11-27T00:11:39.737Z,4.10
2017-11-27T00:14:06.015Z,4.22
2017-11-27T00:16:32.917Z,3.45
2017-11-27T00:18:59.229Z,4.55
2017-11-27T00:21:25.538Z,4.35
2017-11-27T00:23:52.594Z,3.65
2017-11-27T00:26:18.954Z,4.30
2017-11-27T00:28:45.201Z,4.03
2017-11-27T00:31:11.463Z,4.25
2017-11-27T00:33:37.748Z,4.22
2017-11-27T00:36:03.990Z,3.80
2017-11-27T00:38:30.662Z,5.68
2017-11-27T00:40:56.906Z,4.18
2017-11-27T00:43:23.171Z,3.90
2017-11-27T00:45:49.455Z,4.12
2017-11-27T00:48:15.688Z,3.78
2017-11-27T00:50:41.950Z,3.72
2017-11-27T00:53:08.215Z,5.00
2017-11-27T00:55:35.267Z,3.65
2017-11-27T00:58:02.299Z,4.12
2017-11-27T01:00:29.385Z,5.07
2017-11-27T01:02:55.702Z,3.85
2017-11-27T01:05:21.962Z,4.45
2017-11-27T01:07:48.224Z,5.35
2017-11-27T01:10:15.244Z,4.22
2017-11-27T01:12:41.525Z,4.20
2017-11-27T01:15:07.827Z,3.92
2017-11-27T01:17:34.836Z,4.45
2017-11-27T01:20:01.071Z,4.55
2017-11-27T01:22:27.629Z,4.70
2017-11-27T01:24:53.858Z,4.20
2017-11-27T01:27:20.117Z,4.45
2017-11-27T01:29:46.524Z,4.62
2017-11-27T01:32:12.846Z,4.80
2017-11-27T01:34:39.147Z,4.18
2017-11-27T01:37:05.442Z,4.47
2017-11-27T01:39:31.687Z,4.47
2017-11-27T01:41:57.959Z,3.87
2017-11-27T01:44:24.230Z,4.68
2017-11-27T01:46:50.952Z,3.75
2017-11-27T01:49:17.243Z,4.50
2017-11-27T01:51:43.530Z,4.12
2017-11-27T01:54:09.817Z,4.20
2017-11-27T01:56:36.864Z,3.58
2017-11-27T01:59:03.882Z,4.00
2017-11-27T02:01:30.156Z,5.43
2017-11-27T02:03:56.444Z,3.80
2017-11-27T02:06:22.701Z,4.85
2017-11-27T02:08:48.973Z,4.55
2017-11-27T02:11:15.250Z,4.30
2017-11-27T02:13:42.261Z,4.87
2017-11-27T02:16:08.522Z,6.12
2017-11-27T02:18:35.888Z,4.47
2017-11-27T02:21:02.198Z,6.60
2017-11-27T02:23:29.234Z,5.47
2017-11-27T02:25:55.561Z,6.45
2017-11-27T02:28:21.837Z,5.65
2017-11-27T02:30:48.440Z,6.55
2017-11-27T02:33:15.461Z,5.95
2017-11-27T02:35:41.733Z,5.32
2017-11-27T02:38:08.039Z,5.15
2017-11-27T02:40:35.076Z,5.65
2017-11-27T02:43:02.083Z,6.15
2017-11-27T02:45:28.621Z,4.45
2017-11-27T02:50:27.852Z,5.18
2017-11-27T02:52:54.108Z,5.25
2017-11-27T02:55:21.135Z,5.43
2017-11-27T02:57:47.448Z,5.22
2017-11-27T03:00:14.500Z,4.40
2017-11-27T03:02:40.780Z,5.10
2017-11-27T03:05:07.060Z,4.28
2017-11-27T03:07:33.676Z,5.40
2017-11-27T03:09:59.953Z,4.65
2017-11-27T03:12:26.244Z,4.53
2017-11-27T03:14:52.846Z,4.53
2017-11-27T03:17:19.109Z,5.12
2017-11-27T03:19:45.374Z,4.32
2017-11-27T03:22:11.626Z,4.50
2017-11-27T03:24:37.884Z,4.93
2017-11-27T03:27:04.162Z,4.62
2017-11-27T03:29:30.400Z,4.62
2017-11-27T03:31:56.695Z,4.60
2017-11-27T03:34:23.748Z,4.50
2017-11-27T03:36:50.780Z,4.87
2017-11-27T03:39:17.822Z,4.00
2017-11-27T03:41:44.846Z,5.03
2017-11-27T03:44:11.130Z,4.20
2017-11-27T03:46:37.764Z,4.78
2017-11-27T03:49:03.991Z,5.28
2017-11-27T03:51:30.244Z,4.80
2017-11-27T03:53:56.513Z,5.07
2017-11-27T03:56:22.754Z,5.32
2017-11-27T03:58:50.150Z,5.50
2017-11-27T04:01:16.426Z,4.95
2017-11-27T04:03:43.435Z,5.75
2017-11-27T04:06:09.698Z,6.97
2017-11-27T04:08:36.706Z,5.28
2017-11-27T04:11:03.277Z,6.10
2017-11-27T04:13:30.285Z,6.05
2017-11-27T04:15:56.613Z,8.15
2017-11-27T04:18:22.970Z,6.68
2017-11-27T04:20:49.284Z,6.50
2017-11-27T04:23:15.893Z,7.40
2017-11-27T04:25:42.166Z,5.87
2017-11-27T04:28:08.456Z,5.50
2017-11-27T04:30:34.743Z,4.53
2017-11-27T04:33:01.754Z,4.40
2017-11-27T04:35:28.052Z,3.70
2017-11-27T04:37:54.319Z,3.83
2017-11-27T04:40:20.813Z,3.75
2017-11-27T04:42:47.097Z,4.45
2017-11-27T04:45:14.126Z,4.12
2017-11-27T04:47:40.434Z,3.92
2017-11-27T04:50:06.721Z,3.85
2017-11-27T04:52:32.979Z,3.60
2017-11-27T04:54:59.300Z,4.20
2017-11-27T04:57:25.605Z,4.00
2017-11-27T04:59:52.076Z,5.03
2017-11-27T05:02:19.014Z,4.18
2017-11-27T05:04:49.164Z,4.10
2017-11-27T05:07:16.225Z,4.78
2017-11-27T05:09:43.242Z,4.50
2017-11-27T05:12:09.810Z,4.35
2017-11-27T05:14:36.055Z,4.82
2017-11-27T05:17:02.289Z,4.57
2017-11-27T05:19:28.532Z,4.97
2017-11-27T05:21:54.857Z,3.90
2017-11-27T05:24:21.172Z,4.45
2017-11-27T05:26:47.502Z,4.40
2017-11-27T05:29:13.735Z,4.12
2017-11-27T05:31:40.279Z,4.15
2017-11-27T05:34:07.642Z,3.45
2017-11-27T05:36:33.879Z,4.60
2017-11-27T05:39:00.165Z,4.60
2017-11-27T05:41:27.344Z,5.20
2017-11-27T05:43:53.657Z,5.35
2017-11-27T05:46:19.899Z,4.70
2017-11-27T05:48:46.176Z,13.00
2017-11-27T05:51:12.441Z,13.55
2017-11-27T05:53:38.672Z,11.43
2017-11-27T05:56:04.947Z,6.35
2017-11-27T05:58:31.970Z,4.90
2017-11-27T06:00:58.239Z,6.60
2017-11-27T06:03:24.520Z,3.97
2017-11-27T06:05:50.796Z,3.97
2017-11-27T06:08:17.089Z,3.80
2017-11-27T06:10:43.368Z,3.55
2017-11-27T06:13:09.627Z,3.83
2017-11-27T06:15:36.190Z,3.42
2017-11-27T06:18:03.191Z,2.97
2017-11-27T06:20:29.469Z,3.55
2017-11-27T06:22:55.767Z,3.70
2017-11-27T06:25:22.871Z,3.53
2017-11-27T06:27:49.337Z,4.43
2017-11-27T06:30:16.412Z,4.53
2017-11-27T06:32:43.466Z,4.60
2017-11-27T06:35:09.798Z,4.57
2017-11-27T06:37:36.784Z,3.87
2017-11-27T06:40:03.066Z,4.35
2017-11-27T06:42:29.752Z,4.10
2017-11-27T06:44:56.015Z,4.03
2017-11-27T06:47:22.280Z,3.62
2017-11-27T06:49:48.550Z,4.00
2017-11-27T06:52:14.842Z,4.80
2017-11-27T06:54:42.480Z,4.40
2017-11-27T06:57:08.897Z,4.70
2017-11-27T06:59:35.922Z,4.95
2017-11-27T07:02:03.208Z,4.50
2017-11-27T07:04:29.480Z,4.45
2017-11-27T07:06:55.772Z,4.32
2017-11-27T07:09:22.789Z,4.70
2017-11-27T07:11:49.233Z,5.03
2017-11-27T07:14:16.232Z,6.00
2017-11-27T07:16:43.290Z,5.35
2017-11-27T07:19:09.754Z,4.70
2017-11-27T07:21:36.773Z,4.87
2017-11-27T07:24:03.434Z,4.30
2017-11-27T07:26:30.462Z,4.25
2017-11-27T07:28:56.716Z,4.62
2017-11-27T07:31:24.007Z,4.53
2017-11-27T07:33:50.263Z,4.68
2017-11-27T07:36:17.303Z,5.37
2017-11-27T07:38:50.194Z,4.68
2017-11-27T07:41:16.640Z,5.45
2017-11-27T07:43:42.910Z,5.15
2017-11-27T07:46:09.383Z,6.12
2017-11-27T07:48:35.835Z,7.18
2017-11-27T07:51:02.900Z,8.30
2017-11-27T07:53:29.140Z,4.22
2017-11-27T07:55:55.415Z,4.85
2017-11-27T07:58:21.689Z,3.60
2017-11-27T08:00:48.943Z,3.53
2017-11-27T08:03:15.204Z,4.43
2017-11-27T08:05:41.484Z,4.90
2017-11-27T08:08:08.858Z,6.90
2017-11-27T08:10:35.099Z,7.22
2017-11-27T08:13:01.687Z,6.28
2017-11-27T08:15:28.691Z,4.28
2017-11-27T08:17:54.951Z,4.50
2017-11-27T08:20:21.258Z,4.32
2017-11-27T08:22:47.581Z,4.50
2017-11-27T08:25:13.859Z,3.87
2017-11-27T08:27:40.112Z,4.37
2017-11-27T08:30:06.381Z,4.20
2017-11-27T08:32:32.637Z,4.28
2017-11-27T08:34:59.742Z,4.15
2017-11-27T08:37:26.062Z,4.80
2017-11-27T08:39:52.336Z,3.85
2017-11-27T08:42:19.378Z,3.92
2017-11-27T08:44:45.783Z,3.30
2017-11-27T08:47:12.066Z,3.30
2017-11-27T08:49:38.749Z,4.07
2017-11-27T08:52:05.038Z,3.67
2017-11-27T08:54:31.994Z,3.80
2017-11-27T08:56:59.218Z,3.08
2017-11-27T08:59:25.473Z,3.70
2017-11-27T09:01:51.771Z,4.28
2017-11-27T09:04:18.077Z,4.10
2017-11-27T09:06:45.110Z,3.42
2017-11-27T09:09:11.394Z,3.00
2017-11-27T09:11:37.691Z,2.70
2017-11-27T09:14:04.483Z,2.72
2017-11-27T09:16:30.797Z,2.60
2017-11-27T09:18:57.072Z,3.45
2017-11-27T09:21:23.314Z,3.65
2017-11-27T09:23:50.468Z,3.00
2017-11-27T09:26:17.365Z,2.80
2017-11-27T09:28:43.669Z,2.67
2017-11-27T09:31:10.097Z,2.47
2017-11-27T09:33:36.345Z,2.95
2017-11-27T09:36:02.630Z,3.60
2017-11-27T09:38:28.913Z,2.58
2017-11-27T09:41:01.893Z,3.53
2017-11-27T09:43:32.401Z,3.05
2017-11-27T09:45:58.684Z,2.62
2017-11-27T09:48:25.682Z,2.22
2017-11-27T09:50:52.001Z,2.70
2017-11-27T09:53:18.275Z,2.95
2017-11-27T09:55:45.300Z,2.25
2017-11-27T09:58:11.595Z,2.60
2017-11-27T10:00:37.882Z,3.22
2017-11-27T10:03:04.926Z,2.70
2017-11-27T10:05:31.231Z,2.70
2017-11-27T10:07:57.536Z,2.30
2017-11-27T10:10:23.846Z,2.30
2017-11-27T10:12:50.138Z,2.40
2017-11-27T10:15:18.003Z,2.30
2017-11-27T10:17:45.029Z,2.78
2017-11-27T10:20:11.344Z,2.85
2017-11-27T10:22:37.639Z,2.00
2017-11-27T10:25:03.945Z,2.58
2017-11-27T10:27:30.551Z,2.45
2017-11-27T10:29:56.818Z,3.20
2017-11-27T10:32:23.065Z,2.58
2017-11-27T10:34:49.610Z,3.20
2017-11-27T10:37:15.897Z,3.17
2017-11-27T10:39:42.176Z,2.50
2017-11-27T10:42:08.481Z,2.40
2017-11-27T10:44:34.762Z,2.37
2017-11-27T10:47:02.079Z,2.20
2017-11-27T10:49:28.372Z,1.95
2017-11-27T10:51:55.531Z,2.90
2017-11-27T10:54:22.114Z,2.67
2017-11-27T10:56:49.139Z,2.90
2017-11-27T10:59:15.469Z,2.72
2017-11-27T11:01:41.741Z,3.47
2017-11-27T11:04:08.014Z,5.60
2017-11-27T11:06:34.270Z,3.15
2017-11-27T11:09:00.549Z,2.83
2017-11-27T11:11:26.858Z,2.85
2017-11-27T11:13:53.185Z,1.55
2017-11-27T11:16:19.474Z,1.77
2017-11-27T11:18:45.773Z,2.08
2017-11-27T11:21:13.290Z,1.48
2017-11-27T11:23:40.617Z,1.87
2017-11-27T11:26:06.881Z,2.33
2017-11-27T11:28:33.188Z,1.75
2017-11-27T11:31:00.247Z,2.50
2017-11-27T11:33:26.536Z,1.27
2017-11-27T11:35:52.837Z,3.20
2017-11-27T11:38:19.167Z,1.62
2017-11-27T11:40:45.467Z,1.70
2017-11-27T11:43:11.726Z,1.60
2017-11-27T11:45:38.087Z,1.65
2017-11-27T11:48:05.100Z,1.40
2017-11-27T11:50:31.358Z,1.25
2017-11-27T11:52:57.624Z,1.52
2017-11-27T11:55:23.893Z,1.73
2017-11-27T11:57:50.220Z,1.70
2017-11-27T12:00:16.538Z,1.25
2017-11-27T12:02:42.819Z,1.60
2017-11-27T12:05:09.853Z,1.67
2017-11-27T12:07:36.909Z,2.10
2017-11-27T12:10:03.938Z,1.42
2017-11-27T12:12:31.085Z,1.10
2017-11-27T12:14:57.360Z,1.30
2017-11-27T12:17:23.602Z,1.58
2017-11-27T12:19:49.921Z,1.58
2017-11-27T12:22:16.195Z,1.50
2017-11-27T12:24:42.763Z,1.80
2017-11-27T12:27:09.071Z,1.67
2017-11-27T12:29:36.092Z,1.70
2017-11-27T12:32:02.773Z,2.00
2017-11-27T12:34:29.061Z,1.77
2017-11-27T12:36:55.348Z,2.20
2017-11-27T12:39:21.720Z,2.22
2017-11-27T12:41:48.057Z,1.62
2017-11-27T12:44:14.629Z,1.33
2017-11-27T12:46:40.906Z,1.80
2017-11-27T12:49:07.186Z,1.65
2017-11-27T12:51:33.474Z,2.03
2017-11-27T12:53:59.760Z,1.60
2017-11-27T12:56:26.042Z,2.37
2017-11-27T12:58:53.095Z,1.40
2017-11-27T13:01:19.378Z,2.08
2017-11-27T13:03:45.657Z,1.60
2017-11-27T13:06:12.641Z,5.72
2017-11-27T13:08:38.907Z,3.30
2017-11-27T13:11:05.516Z,2.30
2017-11-27T13:13:31.813Z,2.40
2017-11-27T13:15:58.086Z,1.70
2017-11-27T13:18:24.692Z,1.80
2017-11-27T13:20:50.936Z,1.92
2017-11-27T13:23:17.205Z,1.80
2017-11-27T13:25:43.503Z,1.77
2017-11-27T13:28:09.796Z,1.83
2017-11-27T13:30:36.079Z,1.75
2017-11-27T13:33:03.093Z,1.50
2017-11-27T13:35:29.355Z,1.65
2017-11-27T13:37:56.387Z,2.03
2017-11-27T13:40:22.638Z,1.20
2017-11-27T13:42:48.913Z,1.98
2017-11-27T13:45:15.255Z,2.20
2017-11-27T13:47:41.521Z,1.73
2017-11-27T13:50:08.581Z,1.70
2017-11-27T13:52:34.881Z,1.40
2017-11-27T13:55:01.945Z,1.80
2017-11-27T13:57:28.970Z,1.90
2017-11-27T13:59:56.090Z,1.30
2017-11-27T14:02:22.385Z,1.60
2017-11-27T14:04:48.649Z,1.48
2017-11-27T14:07:14.908Z,1.70
2017-11-27T14:09:41.202Z,1.80
2017-11-27T14:12:07.483Z,2.05
2017-11-27T14:14:33.757Z,1.90
2017-11-27T14:17:00.064Z,2.42
2017-11-27T14:19:33.272Z,1.70
2017-11-27T14:24:32.704Z,1.65
2017-11-27T14:26:59.004Z,1.98
2017-11-27T14:29:25.312Z,1.90
2017-11-27T14:31:51.649Z,1.87
2017-11-27T14:34:17.949Z,1.83
2017-11-27T14:36:44.948Z,1.20
2017-11-27T14:39:11.260Z,2.47
2017-11-27T14:41:37.568Z,1.90
2017-11-27T14:44:03.880Z,2.00
2017-11-27T14:46:30.848Z,1.95
2017-11-27T14:48:57.244Z,2.20
2017-11-27T14:51:24.277Z,2.60
2017-11-27T14:53:50.582Z,2.15
2017-11-27T14:56:16.896Z,2.55
2017-11-27T14:58:43.204Z,1.50
2017-11-27T15:01:09.590Z,7.85
2017-11-27T15:03:35.929Z,3.47
2017-11-27T15:06:02.377Z,2.95
2017-11-27T15:08:29.453Z,2.20
2017-11-27T15:10:55.906Z,2.37
2017-11-27T15:13:22.289Z,1.83
2017-11-27T15:15:48.626Z,2.15
2017-11-27T15:18:15.065Z,1.65
2017-11-27T15:20:41.386Z,1.90
2017-11-27T15:23:07.703Z,1.80
2017-11-27T15:25:34.780Z,2.55
2017-11-27T15:28:01.079Z,2.10
2017-11-27T15:30:27.409Z,2.05
2017-11-27T15:32:53.709Z,2.50
2017-11-27T15:35:20.121Z,2.60
2017-11-27T15:37:46.475Z,2.40
2017-11-27T15:40:13.073Z,2.53
2017-11-27T15:42:40.310Z,2.47
2017-11-27T15:45:06.709Z,2.75
2017-11-27T15:47:33.038Z,2.75
2017-11-27T15:49:59.523Z,2.80
2017-11-27T15:52:25.804Z,2.33
2017-11-27T15:54:52.878Z,2.40
2017-11-27T15:57:19.203Z,3.17
2017-11-27T15:59:45.532Z,2.75
2017-11-27T16:02:11.888Z,3.12
2017-11-27T16:04:38.262Z,3.10
2017-11-27T16:07:05.352Z,4.00
2017-11-27T16:09:31.728Z,6.90
2017-11-27T16:11:58.839Z,12.75
2017-11-27T16:14:25.205Z,7.78
2017-11-27T16:16:52.277Z,5.65
2017-11-27T16:19:18.575Z,4.50
2017-11-27T16:21:45.667Z,3.40
2017-11-27T16:24:11.975Z,4.28
2017-11-27T16:26:38.224Z,3.03
2017-11-27T16:29:04.549Z,3.05
2017-11-27T16:31:30.904Z,2.70
2017-11-27T16:33:57.239Z,2.37
2017-11-27T16:36:23.571Z,2.97
2017-11-27T16:38:49.897Z,2.55
2017-11-27T16:41:16.262Z,2.90
2017-11-27T16:43:42.558Z,4.40
2017-11-27T16:46:08.853Z,3.85
2017-11-27T16:48:35.171Z,3.20
2017-11-27T16:51:01.455Z,3.67
2017-11-27T16:53:27.818Z,2.95
2017-11-27T16:55:54.159Z,2.92
2017-11-27T16:58:20.467Z,2.78
2017-11-27T17:00:47.499Z,3.85
2017-11-27T17:03:14.594Z,5.35
2017-11-27T17:05:40.908Z,6.80
2017-11-27T17:08:07.218Z,5.55
2017-11-27T17:10:33.528Z,5.22
2017-11-27T17:13:00.613Z,5.10
2017-11-27T17:15:26.979Z,5.00
2017-11-27T17:17:53.345Z,6.03
2017-11-27T17:20:19.705Z,4.70
2017-11-27T17:22:46.052Z,4.90
2017-11-27T17:25:12.436Z,4.85
2017-11-27T17:27:39.534Z,4.68
2017-11-27T17:30:05.885Z,3.97
2017-11-27T17:32:33.034Z,3.62
2017-11-27T17:34:59.447Z,5.10
2017-11-27T17:37:25.783Z,6.18
2017-11-27T17:39:52.202Z,5.65
2017-11-27T17:42:18.514Z,6.43
2017-11-27T17:44:45.127Z,6.62
2017-11-27T17:47:11.504Z,6.37
2017-11-27T17:49:37.895Z,6.80
2017-11-27T17:52:04.253Z,7.18
2017-11-27T17:54:30.582Z,5.97
2017-11-27T17:56:56.922Z,5.93
2017-11-27T17:59:23.306Z,5.28
2017-11-27T18:01:49.654Z,5.45
2017-11-27T18:04:16.037Z,4.43
2017-11-27T18:06:43.118Z,5.40
2017-11-27T18:09:09.415Z,5.50
2017-11-27T18:11:36.574Z,6.28
2017-11-27T18:14:02.967Z,5.87
2017-11-27T18:16:29.354Z,6.25
2017-11-27T18:18:55.711Z,7.15
2017-11-27T18:21:22.167Z,7.95
2017-11-27T18:23:48.540Z,7.10
2017-11-27T18:26:14.911Z,8.77
2017-11-27T18:28:41.286Z,9.35
2017-11-27T18:31:07.678Z,9.90
2017-11-27T18:33:34.033Z,13.68
2017-11-27T18:36:01.181Z,9.45
2017-11-27T18:38:27.646Z,7.65
2017-11-27T18:40:54.099Z,7.60
2017-11-27T18:43:20.684Z,6.75
2017-11-27T18:45:47.040Z,5.57
2017-11-27T18:48:13.403Z,6.00
2017-11-27T18:50:39.813Z,5.25
2017-11-27T18:53:06.152Z,4.93
2017-11-27T18:55:32.548Z,4.90
2017-11-27T18:57:59.013Z,4.32
2017-11-27T19:00:25.450Z,4.18
2017-11-27T19:02:52.133Z,4.28
2017-11-27T19:05:19.304Z,4.12
2017-11-27T19:07:45.710Z,4.95
2017-11-27T19:10:12.200Z,4.50
2017-11-27T19:12:38.647Z,4.90
2017-11-27T19:15:05.036Z,4.25
2017-11-27T19:17:31.443Z,5.75
2017-11-27T19:19:57.869Z,6.70
2017-11-27T19:22:25.309Z,6.40
2017-11-27T19:24:51.775Z,7.90
2017-11-27T19:27:18.203Z,6.68
2017-11-27T19:29:44.594Z,5.40
2017-11-27T19:32:11.032Z,5.95
2017-11-27T19:34:37.747Z,5.00
2017-11-27T19:37:04.137Z,5.32
2017-11-27T19:39:30.543Z,5.55
2017-11-27T19:41:57.730Z,5.10
2017-11-27T19:44:24.125Z,5.75
2017-11-27T19:46:51.439Z,7.28
2017-11-27T19:49:17.858Z,4.60
2017-11-27T19:51:44.291Z,5.45
2017-11-27T19:54:10.742Z,4.87
2017-11-27T19:56:37.192Z,4.47
2017-11-27T19:59:03.605Z,4.57
2017-11-27T20:01:30.262Z,3.75
2017-11-27T20:03:56.652Z,4.32
2017-11-27T20:06:23.105Z,4.75
2017-11-27T20:08:49.587Z,4.55
2017-11-27T20:11:16.071Z,4.68
2017-11-27T20:13:42.540Z,3.85
2017-11-27T20:16:09.067Z,3.70
2017-11-27T20:18:36.410Z,5.18
2017-11-27T20:21:03.669Z,4.40
2017-11-27T20:23:30.137Z,4.45
2017-11-27T20:25:56.579Z,3.75
2017-11-27T20:28:23.008Z,4.00
2017-11-27T20:30:49.433Z,3.12
2017-11-27T20:33:15.882Z,4.05
2017-11-27T20:35:42.331Z,4.55
2017-11-27T20:38:08.798Z,4.32
2017-11-27T20:40:36.024Z,5.18
2017-11-27T20:43:02.422Z,4.90
2017-11-27T20:45:28.860Z,4.53
2017-11-27T20:47:56.116Z,3.70
2017-11-27T20:50:22.591Z,3.62
2017-11-27T20:52:50.053Z,4.00
2017-11-27T20:55:16.499Z,4.12
2017-11-27T20:57:44.547Z,3.95
2017-11-27T21:00:11.838Z,3.90
2017-11-27T21:02:39.384Z,4.00
2017-11-27T21:05:06.646Z,3.90
2017-11-27T21:07:33.218Z,3.53
2017-11-27T21:09:59.649Z,2.78
2017-11-27T21:12:26.245Z,3.45
2017-11-27T21:14:52.631Z,3.00
2017-11-27T21:17:19.834Z,5.25
2017-11-27T21:19:46.295Z,3.30
2017-11-27T21:22:12.750Z,3.33
2017-11-27T21:24:39.183Z,3.25
2017-11-27T21:27:06.302Z,3.50
2017-11-27T21:29:32.646Z,2.80
2017-11-27T21:31:59.977Z,2.92
2017-11-27T21:34:26.306Z,3.15
2017-11-27T21:36:52.658Z,2.92
2017-11-27T21:39:19.994Z,2.65
2017-11-27T21:41:46.280Z,3.22
2017-11-27T21:44:12.618Z,2.40
2017-11-27T21:46:39.243Z,3.17
2017-11-27T21:49:05.659Z,3.33
2017-11-27T21:51:32.112Z,2.45
2017-11-27T21:53:59.058Z,2.45
2017-11-27T21:56:25.388Z,3.35
2017-11-27T21:58:51.712Z,2.80
2017-11-27T22:01:18.043Z,2.87
2017-11-27T22:03:44.440Z,2.80
2017-11-27T22:06:12.284Z,3.20
2017-11-27T22:08:38.849Z,3.60
2017-11-27T22:11:05.200Z,2.95
2017-11-27T22:13:31.549Z,3.33
2017-11-27T22:15:57.864Z,3.47
2017-11-27T22:18:24.162Z,3.55
2017-11-27T22:20:50.461Z,2.87
2017-11-27T22:23:16.811Z,2.87
2017-11-27T22:25:43.847Z,2.53
2017-11-27T22:28:10.091Z,2.80
2017-11-27T22:30:37.144Z,3.70
2017-11-27T22:33:03.480Z,3.15
2017-11-27T22:35:29.745Z,3.65
2017-11-27T22:37:56.072Z,3.15
2017-11-27T22:40:22.392Z,2.78
2017-11-27T22:42:48.671Z,2.95
2017-11-27T22:45:17.309Z,2.72
2017-11-27T22:47:43.602Z,2.65
2017-11-27T22:50:09.920Z,2.70
2017-11-27T22:52:36.364Z,2.47
2017-11-27T22:55:03.692Z,2.83
2017-11-27T22:57:31.032Z,2.53
2017-11-27T22:59:57.406Z,2.35
2017-11-27T23:02:24.540Z,2.35
2017-11-27T23:04:50.816Z,2.00
2017-11-27T23:07:17.132Z,2.15
2017-11-27T23:09:43.708Z,2.85
2017-11-27T23:12:10.165Z,1.92
2017-11-27T23:14:36.500Z,2.00
2017-11-27T23:17:02.921Z,2.40
2017-11-27T23:19:29.268Z,1.80
2017-11-27T23:21:55.564Z,1.90
2017-11-27T23:24:22.630Z,1.98
2017-11-27T23:26:49.021Z,2.08
2017-11-27T23:29:15.340Z,2.25
2017-11-27T23:31:41.737Z,2.00
2017-11-27T23:34:08.068Z,1.95
2017-11-27T23:36:34.384Z,1.95
2017-11-27T23:39:00.684Z,2.20
2017-11-27T23:41:27.710Z,2.05
2017-11-27T23:43:54.031Z,2.00
2017-11-27T23:46:21.819Z,2.47
2017-11-27T23:48:48.860Z,2.40
2017-11-27T23:51:15.946Z,2.75
2017-11-27T23:53:42.236Z,2.10
2017-11-27T23:56:09.303Z,2.25
2017-11-27T23:58:36.408Z,2.00
